sensor_id;sensor_type;location;lat;lon;timestamp;pressure;altitude;pressure_sealevel;temperature;humidity
20983;BME280;10650;51.528;6.748;2023-06-22T00:00:27;101613.22;;;22.68;61.13
20983;BME280;10650;51.528;6.748;2023-06-22T00:02:55;101619.00;;;22.60;61.94
20983;BME280;10650;51.528;6.748;2023-06-22T00:05:23;101614.47;;;22.61;62.02
20983;BME280;10650;51.528;6.748;2023-06-22T00:07:51;101618.72;;;22.67;61.84
20983;BME280;10650;51.528;6.748;2023-06-22T00:10:19;101626.72;;;22.71;61.68
20983;BME280;10650;51.528;6.748;2023-06-22T00:12:46;101620.44;;;22.69;61.97
20983;BME280;10650;51.528;6.748;2023-06-22T00:15:14;101619.63;;;22.67;61.97
20983;BME280;10650;51.528;6.748;2023-06-22T00:17:45;101622.03;;;22.54;62.41
20983;BME280;10650;51.528;6.748;2023-06-22T00:20:13;101625.84;;;22.50;62.97
20983;BME280;10650;51.528;6.748;2023-06-22T00:22:41;101626.63;;;22.52;63.01
20983;BME280;10650;51.528;6.748;2023-06-22T00:25:09;101618.53;;;22.51;62.64
20983;BME280;10650;51.528;6.748;2023-06-22T00:27:37;101615.16;;;22.45;63.09
20983;BME280;10650;51.528;6.748;2023-06-22T00:30:06;101622.44;;;22.45;63.34
20983;BME280;10650;51.528;6.748;2023-06-22T00:32:34;101623.34;;;22.45;63.28
20983;BME280;10650;51.528;6.748;2023-06-22T00:35:04;101629.25;;;22.35;63.40
20983;BME280;10650;51.528;6.748;2023-06-22T00:37:31;101626.31;;;22.39;63.61
20983;BME280;10650;51.528;6.748;2023-06-22T00:39:59;101614.84;;;22.33;63.75
20983;BME280;10650;51.528;6.748;2023-06-22T00:42:27;101612.09;;;22.33;63.97
20983;BME280;10650;51.528;6.748;2023-06-22T00:44:55;101605.69;;;22.34;63.94
20983;BME280;10650;51.528;6.748;2023-06-22T00:47:23;101604.66;;;22.36;63.80
20983;BME280;10650;51.528;6.748;2023-06-22T00:49:50;101606.53;;;22.36;63.84
20983;BME280;10650;51.528;6.748;2023-06-22T00:52:21;101612.84;;;22.36;64.05
20983;BME280;10650;51.528;6.748;2023-06-22T00:54:53;101623.22;;;22.26;64.52
20983;BME280;10650;51.528;6.748;2023-06-22T00:57:22;101616.34;;;22.18;64.88
20983;BME280;10650;51.528;6.748;2023-06-22T00:59:52;101616.47;;;22.15;64.76
20983;BME280;10650;51.528;6.748;2023-06-22T01:02:20;101609.09;;;22.18;64.92
20983;BME280;10650;51.528;6.748;2023-06-22T01:04:47;101608.03;;;22.21;64.87
20983;BME280;10650;51.528;6.748;2023-06-22T01:07:23;101604.78;;;22.12;65.06
20983;BME280;10650;51.528;6.748;2023-06-22T01:09:59;101602.28;;;22.08;65.52
20983;BME280;10650;51.528;6.748;2023-06-22T01:12:30;101599.59;;;22.06;65.27
20983;BME280;10650;51.528;6.748;2023-06-22T01:15:05;101594.13;;;22.08;65.39
20983;BME280;10650;51.528;6.748;2023-06-22T01:17:36;101596.94;;;22.05;65.47
20983;BME280;10650;51.528;6.748;2023-06-22T01:20:09;101596.00;;;22.06;65.67
20983;BME280;10650;51.528;6.748;2023-06-22T01:23:00;101593.44;;;22.03;65.57
20983;BME280;10650;51.528;6.748;2023-06-22T01:25:35;101598.03;;;22.01;65.64
20983;BME280;10650;51.528;6.748;2023-06-22T01:28:15;101593.69;;;21.97;65.85
20983;BME280;10650;51.528;6.748;2023-06-22T01:30:48;101603.59;;;21.98;65.87
20983;BME280;10650;51.528;6.748;2023-06-22T01:33:17;101597.22;;;21.99;65.98
20983;BME280;10650;51.528;6.748;2023-06-22T01:35:45;101592.72;;;21.98;66.11
20983;BME280;10650;51.528;6.748;2023-06-22T01:38:13;101585.66;;;21.93;66.25
20983;BME280;10650;51.528;6.748;2023-06-22T01:40:41;101589.66;;;21.85;66.80
20983;BME280;10650;51.528;6.748;2023-06-22T01:43:09;101585.44;;;21.77;67.04
20983;BME280;10650;51.528;6.748;2023-06-22T01:45:37;101587.28;;;21.77;67.15
20983;BME280;10650;51.528;6.748;2023-06-22T01:48:06;101599.03;;;21.77;67.26
20983;BME280;10650;51.528;6.748;2023-06-22T01:50:34;101591.84;;;21.76;67.29
20983;BME280;10650;51.528;6.748;2023-06-22T01:53:02;101589.28;;;21.72;67.38
20983;BME280;10650;51.528;6.748;2023-06-22T01:55:31;101593.84;;;21.71;67.41
20983;BME280;10650;51.528;6.748;2023-06-22T01:57:59;101591.00;;;21.74;67.47
20983;BME280;10650;51.528;6.748;2023-06-22T02:00:28;101588.06;;;21.79;67.31
20983;BME280;10650;51.528;6.748;2023-06-22T02:03:02;101578.47;;;21.70;68.00
20983;BME280;10650;51.528;6.748;2023-06-22T02:05:37;101587.66;;;21.68;67.78
20983;BME280;10650;51.528;6.748;2023-06-22T02:08:11;101590.38;;;21.68;68.02
20983;BME280;10650;51.528;6.748;2023-06-22T02:10:43;101577.09;;;21.60;68.31
20983;BME280;10650;51.528;6.748;2023-06-22T02:13:13;101574.31;;;21.62;68.25
20983;BME280;10650;51.528;6.748;2023-06-22T02:15:41;101582.47;;;21.62;68.45
20983;BME280;10650;51.528;6.748;2023-06-22T02:18:09;101588.56;;;21.68;68.19
20983;BME280;10650;51.528;6.748;2023-06-22T02:20:39;101582.09;;;21.71;68.11
20983;BME280;10650;51.528;6.748;2023-06-22T02:23:07;101583.84;;;21.72;68.29
20983;BME280;10650;51.528;6.748;2023-06-22T02:25:35;101585.63;;;21.73;68.20
20983;BME280;10650;51.528;6.748;2023-06-22T02:28:04;101581.97;;;21.74;68.47
20983;BME280;10650;51.528;6.748;2023-06-22T02:30:32;101579.31;;;21.72;68.52
20983;BME280;10650;51.528;6.748;2023-06-22T02:32:59;101573.50;;;21.59;69.08
20983;BME280;10650;51.528;6.748;2023-06-22T02:35:27;101572.97;;;21.50;69.54
20983;BME280;10650;51.528;6.748;2023-06-22T02:37:59;101580.44;;;21.44;69.62
20983;BME280;10650;51.528;6.748;2023-06-22T02:40:28;101572.47;;;21.40;70.09
20983;BME280;10650;51.528;6.748;2023-06-22T02:42:57;101577.38;;;21.30;70.08
20983;BME280;10650;51.528;6.748;2023-06-22T02:45:28;101574.44;;;21.36;70.19
20983;BME280;10650;51.528;6.748;2023-06-22T02:47:56;101569.16;;;21.32;70.57
20983;BME280;10650;51.528;6.748;2023-06-22T02:50:24;101575.69;;;21.27;70.60
20983;BME280;10650;51.528;6.748;2023-06-22T02:52:53;101568.50;;;21.26;71.00
20983;BME280;10650;51.528;6.748;2023-06-22T02:55:22;101567.72;;;21.23;71.02
20983;BME280;10650;51.528;6.748;2023-06-22T02:57:50;101560.63;;;21.19;71.22
20983;BME280;10650;51.528;6.748;2023-06-22T03:00:19;101567.97;;;21.17;71.15
20983;BME280;10650;51.528;6.748;2023-06-22T03:02:48;101561.75;;;21.13;71.54
20983;BME280;10650;51.528;6.748;2023-06-22T03:05:17;101557.44;;;21.09;71.68
20983;BME280;10650;51.528;6.748;2023-06-22T03:07:45;101562.88;;;21.09;71.82
20983;BME280;10650;51.528;6.748;2023-06-22T03:10:14;101561.31;;;21.02;72.13
20983;BME280;10650;51.528;6.748;2023-06-22T03:12:43;101557.78;;;21.00;72.31
20983;BME280;10650;51.528;6.748;2023-06-22T03:15:12;101555.94;;;21.00;72.47
20983;BME280;10650;51.528;6.748;2023-06-22T03:17:40;101552.47;;;20.97;72.66
20983;BME280;10650;51.528;6.748;2023-06-22T03:20:09;101551.75;;;20.91;73.07
20983;BME280;10650;51.528;6.748;2023-06-22T03:22:38;101556.19;;;20.94;72.77
20983;BME280;10650;51.528;6.748;2023-06-22T03:25:07;101558.72;;;20.99;73.00
20983;BME280;10650;51.528;6.748;2023-06-22T03:27:39;101551.53;;;20.98;72.80
20983;BME280;10650;51.528;6.748;2023-06-22T03:30:10;101547.97;;;20.96;72.64
20983;BME280;10650;51.528;6.748;2023-06-22T03:32:38;101544.22;;;21.00;72.69
20983;BME280;10650;51.528;6.748;2023-06-22T03:35:07;101542.63;;;20.94;72.82
20983;BME280;10650;51.528;6.748;2023-06-22T03:37:34;101541.75;;;20.94;73.08
20983;BME280;10650;51.528;6.748;2023-06-22T03:40:03;101545.28;;;20.96;73.04
20983;BME280;10650;51.528;6.748;2023-06-22T03:42:33;101538.78;;;21.00;72.87
20983;BME280;10650;51.528;6.748;2023-06-22T03:45:01;101530.56;;;21.01;72.66
20983;BME280;10650;51.528;6.748;2023-06-22T03:47:31;101533.88;;;20.86;73.73
20983;BME280;10650;51.528;6.748;2023-06-22T03:49:59;101527.50;;;20.87;73.78
20983;BME280;10650;51.528;6.748;2023-06-22T03:52:30;101528.50;;;20.84;74.00
20983;BME280;10650;51.528;6.748;2023-06-22T03:54:58;101525.06;;;20.81;74.46
20983;BME280;10650;51.528;6.748;2023-06-22T03:57:25;101519.69;;;20.79;74.31
20983;BME280;10650;51.528;6.748;2023-06-22T03:59:56;101516.53;;;20.66;74.98
20983;BME280;10650;51.528;6.748;2023-06-22T04:02:24;101520.03;;;20.70;74.81
20983;BME280;10650;51.528;6.748;2023-06-22T04:04:53;101523.28;;;20.80;74.85
20983;BME280;10650;51.528;6.748;2023-06-22T04:07:21;101513.41;;;20.77;74.59
20983;BME280;10650;51.528;6.748;2023-06-22T04:09:49;101514.94;;;20.84;74.32
20983;BME280;10650;51.528;6.748;2023-06-22T04:12:17;101507.44;;;20.91;74.26
20983;BME280;10650;51.528;6.748;2023-06-22T04:14:44;101506.13;;;21.01;74.18
20983;BME280;10650;51.528;6.748;2023-06-22T04:17:12;101516.63;;;21.11;73.73
20983;BME280;10650;51.528;6.748;2023-06-22T04:19:40;101509.91;;;21.19;73.52
20983;BME280;10650;51.528;6.748;2023-06-22T04:22:09;101520.47;;;21.27;73.65
20983;BME280;10650;51.528;6.748;2023-06-22T04:24:38;101514.59;;;21.38;73.19
20983;BME280;10650;51.528;6.748;2023-06-22T04:27:06;101517.03;;;21.44;73.11
20983;BME280;10650;51.528;6.748;2023-06-22T04:29:33;101515.78;;;21.53;72.75
20983;BME280;10650;51.528;6.748;2023-06-22T04:32:01;101522.88;;;21.57;72.63
20983;BME280;10650;51.528;6.748;2023-06-22T04:34:31;101518.94;;;21.64;72.38
20983;BME280;10650;51.528;6.748;2023-06-22T04:36:59;101521.88;;;21.59;72.47
20983;BME280;10650;51.528;6.748;2023-06-22T04:39:28;101522.47;;;21.66;72.57
20983;BME280;10650;51.528;6.748;2023-06-22T04:41:58;101528.81;;;21.67;72.21
20983;BME280;10650;51.528;6.748;2023-06-22T04:44:27;101531.44;;;21.68;72.15
20983;BME280;10650;51.528;6.748;2023-06-22T04:46:55;101525.13;;;21.68;72.01
20983;BME280;10650;51.528;6.748;2023-06-22T04:49:27;101518.25;;;21.59;72.68
20983;BME280;10650;51.528;6.748;2023-06-22T04:51:59;101521.47;;;21.47;72.91
20983;BME280;10650;51.528;6.748;2023-06-22T04:54:29;101514.47;;;21.41;73.16
20983;BME280;10650;51.528;6.748;2023-06-22T04:56:59;101512.69;;;21.40;73.46
20983;BME280;10650;51.528;6.748;2023-06-22T04:59:28;101510.09;;;21.37;73.66
20983;BME280;10650;51.528;6.748;2023-06-22T05:01:56;101515.53;;;21.37;73.83
20983;BME280;10650;51.528;6.748;2023-06-22T05:04:25;101514.59;;;21.38;73.99
20983;BME280;10650;51.528;6.748;2023-06-22T05:06:54;101511.94;;;21.36;74.02
20983;BME280;10650;51.528;6.748;2023-06-22T05:09:22;101519.06;;;21.39;73.62
20983;BME280;10650;51.528;6.748;2023-06-22T05:11:52;101520.09;;;21.36;74.14
20983;BME280;10650;51.528;6.748;2023-06-22T05:14:20;101510.22;;;21.34;74.12
20983;BME280;10650;51.528;6.748;2023-06-22T05:16:48;101511.75;;;21.41;73.98
20983;BME280;10650;51.528;6.748;2023-06-22T05:19:18;101515.06;;;21.48;73.80
20983;BME280;10650;51.528;6.748;2023-06-22T05:21:46;101525.66;;;21.55;73.84
20983;BME280;10650;51.528;6.748;2023-06-22T05:24:13;101516.44;;;21.59;73.90
20983;BME280;10650;51.528;6.748;2023-06-22T05:26:41;101517.38;;;21.58;73.81
20983;BME280;10650;51.528;6.748;2023-06-22T05:29:10;101513.63;;;21.61;73.69
20983;BME280;10650;51.528;6.748;2023-06-22T05:31:38;101519.00;;;21.63;73.62
20983;BME280;10650;51.528;6.748;2023-06-22T05:34:07;101511.00;;;21.59;74.01
20983;BME280;10650;51.528;6.748;2023-06-22T05:36:34;101515.03;;;21.49;74.36
20983;BME280;10650;51.528;6.748;2023-06-22T05:39:11;101524.13;;;21.48;74.33
20983;BME280;10650;51.528;6.748;2023-06-22T05:41:39;101519.75;;;21.44;74.55
20983;BME280;10650;51.528;6.748;2023-06-22T05:44:07;101523.47;;;21.41;74.75
20983;BME280;10650;51.528;6.748;2023-06-22T05:46:37;101526.25;;;21.40;74.62
20983;BME280;10650;51.528;6.748;2023-06-22T05:49:05;101530.75;;;21.41;74.52
20983;BME280;10650;51.528;6.748;2023-06-22T05:51:32;101523.41;;;21.43;74.93
20983;BME280;10650;51.528;6.748;2023-06-22T05:54:00;101536.13;;;21.42;74.72
20983;BME280;10650;51.528;6.748;2023-06-22T05:56:28;101540.94;;;21.36;75.24
20983;BME280;10650;51.528;6.748;2023-06-22T05:58:56;101545.16;;;21.43;75.67
20983;BME280;10650;51.528;6.748;2023-06-22T06:01:24;101561.13;;;21.52;75.69
20983;BME280;10650;51.528;6.748;2023-06-22T06:03:53;101564.78;;;21.51;75.52
20983;BME280;10650;51.528;6.748;2023-06-22T06:06:21;101565.66;;;21.52;75.74
20983;BME280;10650;51.528;6.748;2023-06-22T06:08:55;101571.88;;;21.55;75.74
20983;BME280;10650;51.528;6.748;2023-06-22T06:11:23;101571.94;;;21.54;76.65
20983;BME280;10650;51.528;6.748;2023-06-22T06:13:51;101572.88;;;21.53;77.88
20983;BME280;10650;51.528;6.748;2023-06-22T06:16:18;101566.84;;;21.44;78.17
20983;BME280;10650;51.528;6.748;2023-06-22T06:18:46;101562.66;;;21.36;78.59
20983;BME280;10650;51.528;6.748;2023-06-22T06:21:16;101569.44;;;21.25;79.66
20983;BME280;10650;51.528;6.748;2023-06-22T06:23:44;101562.34;;;21.21;80.10
20983;BME280;10650;51.528;6.748;2023-06-22T06:26:13;101564.00;;;21.25;80.67
20983;BME280;10650;51.528;6.748;2023-06-22T06:28:43;101564.88;;;21.26;80.45
20983;BME280;10650;51.528;6.748;2023-06-22T06:31:11;101560.97;;;21.33;80.50
20983;BME280;10650;51.528;6.748;2023-06-22T06:33:43;101555.44;;;21.35;80.00
20983;BME280;10650;51.528;6.748;2023-06-22T06:36:11;101560.09;;;21.33;79.96
20983;BME280;10650;51.528;6.748;2023-06-22T06:38:40;101560.09;;;21.33;80.00
20983;BME280;10650;51.528;6.748;2023-06-22T06:41:08;101548.28;;;21.34;80.43
20983;BME280;10650;51.528;6.748;2023-06-22T06:43:36;101545.63;;;21.32;80.82
20983;BME280;10650;51.528;6.748;2023-06-22T06:46:03;101542.06;;;21.30;81.23
20983;BME280;10650;51.528;6.748;2023-06-22T06:48:31;101543.06;;;21.27;81.74
20983;BME280;10650;51.528;6.748;2023-06-22T06:50:59;101535.25;;;21.20;81.78
20983;BME280;10650;51.528;6.748;2023-06-22T06:53:27;101528.44;;;21.09;82.93
20983;BME280;10650;51.528;6.748;2023-06-22T06:55:56;101519.69;;;21.01;83.27
20983;BME280;10650;51.528;6.748;2023-06-22T06:58:24;101515.66;;;20.89;83.25
20983;BME280;10650;51.528;6.748;2023-06-22T07:00:52;101520.50;;;20.81;83.41
20983;BME280;10650;51.528;6.748;2023-06-22T07:03:19;101519.63;;;20.81;83.95
20983;BME280;10650;51.528;6.748;2023-06-22T07:05:47;101504.00;;;20.86;84.51
20983;BME280;10650;51.528;6.748;2023-06-22T07:08:15;101510.91;;;20.95;84.08
20983;BME280;10650;51.528;6.748;2023-06-22T07:10:42;101506.44;;;20.94;84.49
20983;BME280;10650;51.528;6.748;2023-06-22T07:13:12;101509.16;;;20.94;84.31
20983;BME280;10650;51.528;6.748;2023-06-22T07:15:39;101492.53;;;21.01;84.66
20983;BME280;10650;51.528;6.748;2023-06-22T07:18:07;101499.28;;;21.13;85.52
20983;BME280;10650;51.528;6.748;2023-06-22T07:20:35;101489.06;;;21.20;84.85
20983;BME280;10650;51.528;6.748;2023-06-22T07:23:03;101483.97;;;21.12;84.66
20983;BME280;10650;51.528;6.748;2023-06-22T07:25:31;101476.88;;;21.08;85.11
20983;BME280;10650;51.528;6.748;2023-06-22T07:28:00;101480.16;;;21.16;85.99
20983;BME280;10650;51.528;6.748;2023-06-22T07:30:30;101484.41;;;21.23;85.51
20983;BME280;10650;51.528;6.748;2023-06-22T07:33:00;101480.56;;;21.27;85.97
20983;BME280;10650;51.528;6.748;2023-06-22T07:35:30;101480.78;;;21.23;85.20
20983;BME280;10650;51.528;6.748;2023-06-22T07:37:58;101476.03;;;21.28;85.21
20983;BME280;10650;51.528;6.748;2023-06-22T07:40:31;101482.78;;;21.40;85.17
20983;BME280;10650;51.528;6.748;2023-06-22T07:43:00;101482.41;;;21.49;84.99
20983;BME280;10650;51.528;6.748;2023-06-22T07:45:27;101489.31;;;21.58;84.98
20983;BME280;10650;51.528;6.748;2023-06-22T07:47:57;101493.53;;;21.65;84.77
20983;BME280;10650;51.528;6.748;2023-06-22T07:50:24;101498.63;;;21.73;84.91
20983;BME280;10650;51.528;6.748;2023-06-22T07:52:53;101496.59;;;21.78;85.03
20983;BME280;10650;51.528;6.748;2023-06-22T07:55:20;101494.75;;;21.78;84.96
20983;BME280;10650;51.528;6.748;2023-06-22T07:57:48;101495.81;;;21.74;83.94
20983;BME280;10650;51.528;6.748;2023-06-22T08:00:18;101481.09;;;21.80;84.01
20983;BME280;10650;51.528;6.748;2023-06-22T08:02:47;101478.91;;;21.88;84.11
20983;BME280;10650;51.528;6.748;2023-06-22T08:05:16;101479.13;;;21.84;84.45
20983;BME280;10650;51.528;6.748;2023-06-22T08:08:01;101477.34;;;21.83;84.91
20983;BME280;10650;51.528;6.748;2023-06-22T08:10:29;101469.31;;;22.00;84.82
20983;BME280;10650;51.528;6.748;2023-06-22T08:12:56;101467.53;;;21.99;84.36
20983;BME280;10650;51.528;6.748;2023-06-22T08:15:26;101460.84;;;22.06;84.20
20983;BME280;10650;51.528;6.748;2023-06-22T08:17:55;101447.69;;;21.97;83.64
20983;BME280;10650;51.528;6.748;2023-06-22T08:20:25;101451.56;;;21.91;83.97
20983;BME280;10650;51.528;6.748;2023-06-22T08:22:54;101436.66;;;22.00;84.56
20983;BME280;10650;51.528;6.748;2023-06-22T08:25:22;101431.63;;;22.11;84.12
20983;BME280;10650;51.528;6.748;2023-06-22T08:27:49;101416.75;;;22.19;84.10
20983;BME280;10650;51.528;6.748;2023-06-22T08:30:17;101403.16;;;22.19;82.70
20983;BME280;10650;51.528;6.748;2023-06-22T08:32:45;101401.63;;;22.13;82.60
20983;BME280;10650;51.528;6.748;2023-06-22T08:35:13;101394.78;;;22.23;82.41
20983;BME280;10650;51.528;6.748;2023-06-22T08:37:43;101399.13;;;22.27;81.14
20983;BME280;10650;51.528;6.748;2023-06-22T08:40:17;101405.63;;;22.44;81.44
20983;BME280;10650;51.528;6.748;2023-06-22T08:42:46;101396.69;;;22.59;80.51
20983;BME280;10650;51.528;6.748;2023-06-22T08:45:14;101406.44;;;22.46;79.75
20983;BME280;10650;51.528;6.748;2023-06-22T08:47:42;101391.47;;;22.55;79.77
20983;BME280;10650;51.528;6.748;2023-06-22T08:50:11;101395.22;;;22.52;79.03
20983;BME280;10650;51.528;6.748;2023-06-22T08:52:40;101397.41;;;22.45;79.17
20983;BME280;10650;51.528;6.748;2023-06-22T08:55:10;101394.31;;;22.34;79.32
20983;BME280;10650;51.528;6.748;2023-06-22T08:57:38;101384.78;;;22.24;80.17
20983;BME280;10650;51.528;6.748;2023-06-22T09:00:07;101383.09;;;22.21;80.65
20983;BME280;10650;51.528;6.748;2023-06-22T09:02:52;101373.84;;;22.25;80.50
20983;BME280;10650;51.528;6.748;2023-06-22T09:05:25;101373.69;;;22.28;80.92
20983;BME280;10650;51.528;6.748;2023-06-22T09:07:53;101366.84;;;22.39;80.82
20983;BME280;10650;51.528;6.748;2023-06-22T09:10:23;101377.94;;;22.53;80.74
20983;BME280;10650;51.528;6.748;2023-06-22T09:12:51;101388.31;;;22.45;80.38
20983;BME280;10650;51.528;6.748;2023-06-22T09:15:19;101386.41;;;22.66;80.10
20983;BME280;10650;51.528;6.748;2023-06-22T09:17:46;101389.06;;;22.85;79.42
20983;BME280;10650;51.528;6.748;2023-06-22T09:20:15;101379.78;;;22.89;78.52
20983;BME280;10650;51.528;6.748;2023-06-22T09:22:43;101391.97;;;22.99;78.58
20983;BME280;10650;51.528;6.748;2023-06-22T09:25:11;101383.63;;;22.85;78.13
20983;BME280;10650;51.528;6.748;2023-06-22T09:27:40;101388.13;;;22.86;78.46
20983;BME280;10650;51.528;6.748;2023-06-22T09:30:08;101380.63;;;22.72;78.50
20983;BME280;10650;51.528;6.748;2023-06-22T09:32:36;101377.38;;;22.83;79.01
20983;BME280;10650;51.528;6.748;2023-06-22T09:35:05;101383.34;;;22.91;78.28
20983;BME280;10650;51.528;6.748;2023-06-22T09:37:34;101379.34;;;22.98;78.37
20983;BME280;10650;51.528;6.748;2023-06-22T09:40:03;101385.94;;;23.12;78.76
20983;BME280;10650;51.528;6.748;2023-06-22T09:42:35;101382.75;;;23.21;78.22
20983;BME280;10650;51.528;6.748;2023-06-22T09:45:05;101379.78;;;23.26;77.85
20983;BME280;10650;51.528;6.748;2023-06-22T09:47:33;101380.81;;;23.23;78.05
20983;BME280;10650;51.528;6.748;2023-06-22T09:50:00;101381.06;;;23.19;77.86
20983;BME280;10650;51.528;6.748;2023-06-22T09:52:28;101385.53;;;23.20;78.13
20983;BME280;10650;51.528;6.748;2023-06-22T09:55:13;101382.91;;;23.18;78.11
20983;BME280;10650;51.528;6.748;2023-06-22T09:57:42;101383.88;;;23.17;78.20
20983;BME280;10650;51.528;6.748;2023-06-22T10:00:13;101385.53;;;23.20;78.70
20983;BME280;10650;51.528;6.748;2023-06-22T10:02:42;101380.09;;;23.20;79.07
20983;BME280;10650;51.528;6.748;2023-06-22T10:05:10;101384.59;;;23.21;78.82
20983;BME280;10650;51.528;6.748;2023-06-22T10:07:39;101376.09;;;23.27;78.16
20983;BME280;10650;51.528;6.748;2023-06-22T10:10:10;101369.28;;;23.18;78.45
20983;BME280;10650;51.528;6.748;2023-06-22T10:12:41;101373.53;;;23.41;78.85
20983;BME280;10650;51.528;6.748;2023-06-22T10:15:11;101365.06;;;23.63;77.77
20983;BME280;10650;51.528;6.748;2023-06-22T10:17:40;101356.56;;;23.87;76.24
20983;BME280;10650;51.528;6.748;2023-06-22T10:20:08;101352.25;;;23.99;75.10
20983;BME280;10650;51.528;6.748;2023-06-22T10:22:40;101350.00;;;24.23;75.39
20983;BME280;10650;51.528;6.748;2023-06-22T10:25:08;101337.31;;;24.38;74.95
20983;BME280;10650;51.528;6.748;2023-06-22T10:27:36;101338.72;;;24.45;72.56
20983;BME280;10650;51.528;6.748;2023-06-22T10:30:07;101330.69;;;24.58;73.35
20983;BME280;10650;51.528;6.748;2023-06-22T10:32:37;101323.97;;;24.80;72.77
20983;BME280;10650;51.528;6.748;2023-06-22T10:35:06;101324.66;;;24.99;72.24
20983;BME280;10650;51.528;6.748;2023-06-22T10:37:35;101323.28;;;25.07;70.84
20983;BME280;10650;51.528;6.748;2023-06-22T10:40:03;101323.91;;;25.12;70.91
20983;BME280;10650;51.528;6.748;2023-06-22T10:42:32;101317.44;;;25.13;70.57
20983;BME280;10650;51.528;6.748;2023-06-22T10:44:59;101313.50;;;25.33;70.10
20983;BME280;10650;51.528;6.748;2023-06-22T10:47:27;101327.28;;;25.31;69.84
20983;BME280;10650;51.528;6.748;2023-06-22T10:49:56;101332.00;;;25.44;68.60
20983;BME280;10650;51.528;6.748;2023-06-22T10:52:24;101331.59;;;25.50;68.66
20983;BME280;10650;51.528;6.748;2023-06-22T10:54:52;101334.75;;;25.58;67.88
20983;BME280;10650;51.528;6.748;2023-06-22T10:57:21;101340.72;;;25.65;67.47
20983;BME280;10650;51.528;6.748;2023-06-22T10:59:49;101348.53;;;25.71;67.55
20983;BME280;10650;51.528;6.748;2023-06-22T11:02:17;101350.00;;;25.77;67.70
20983;BME280;10650;51.528;6.748;2023-06-22T11:04:45;101343.25;;;25.68;67.80
20983;BME280;10650;51.528;6.748;2023-06-22T11:07:15;101354.09;;;25.55;67.52
20983;BME280;10650;51.528;6.748;2023-06-22T11:09:44;101346.94;;;25.52;67.99
20983;BME280;10650;51.528;6.748;2023-06-22T11:12:11;101347.16;;;25.49;68.53
20983;BME280;10650;51.528;6.748;2023-06-22T11:14:39;101342.94;;;25.44;69.04
20983;BME280;10650;51.528;6.748;2023-06-22T11:17:07;101337.41;;;25.29;68.81
20983;BME280;10650;51.528;6.748;2023-06-22T11:19:35;101333.41;;;25.20;68.76
20983;BME280;10650;51.528;6.748;2023-06-22T11:22:03;101328.03;;;25.19;69.28
20983;BME280;10650;51.528;6.748;2023-06-22T11:24:32;101334.47;;;25.18;68.94
20983;BME280;10650;51.528;6.748;2023-06-22T11:27:00;101335.22;;;25.20;68.64
20983;BME280;10650;51.528;6.748;2023-06-22T11:29:28;101332.41;;;25.21;69.24
20983;BME280;10650;51.528;6.748;2023-06-22T11:32:05;101329.41;;;25.26;69.16
20983;BME280;10650;51.528;6.748;2023-06-22T11:34:33;101335.66;;;25.28;70.02
20983;BME280;10650;51.528;6.748;2023-06-22T11:37:01;101333.69;;;25.30;71.79
20983;BME280;10650;51.528;6.748;2023-06-22T11:39:29;101328.69;;;25.22;71.06
20983;BME280;10650;51.528;6.748;2023-06-22T11:42:10;101334.34;;;25.19;73.49
20983;BME280;10650;51.528;6.748;2023-06-22T11:44:37;101336.56;;;25.13;73.92
20983;BME280;10650;51.528;6.748;2023-06-22T11:47:05;101333.25;;;25.08;75.25
20983;BME280;10650;51.528;6.748;2023-06-22T11:49:33;101333.47;;;25.04;77.27
20983;BME280;10650;51.528;6.748;2023-06-22T11:52:01;101345.69;;;24.97;79.52
20983;BME280;10650;51.528;6.748;2023-06-22T11:54:29;101342.38;;;24.92;81.42
20983;BME280;10650;51.528;6.748;2023-06-22T11:56:57;101334.63;;;24.84;82.28
20983;BME280;10650;51.528;6.748;2023-06-22T11:59:26;101313.34;;;24.75;82.87
20983;BME280;10650;51.528;6.748;2023-06-22T12:01:54;101273.78;;;24.66;83.34
20983;BME280;10650;51.528;6.748;2023-06-22T12:04:21;101265.63;;;24.50;84.71
20983;BME280;10650;51.528;6.748;2023-06-22T12:06:49;101256.81;;;24.29;85.27
20983;BME280;10650;51.528;6.748;2023-06-22T12:09:17;101244.31;;;24.25;86.72
20983;BME280;10650;51.528;6.748;2023-06-22T12:11:45;101249.34;;;24.17;86.88
20983;BME280;10650;51.528;6.748;2023-06-22T12:14:12;101255.00;;;24.14;87.32
20983;BME280;10650;51.528;6.748;2023-06-22T12:16:42;101265.03;;;24.13;86.52
20983;BME280;10650;51.528;6.748;2023-06-22T12:19:11;101267.13;;;24.08;85.13
20983;BME280;10650;51.528;6.748;2023-06-22T12:21:39;101257.91;;;24.11;86.47
20983;BME280;10650;51.528;6.748;2023-06-22T12:24:07;101248.75;;;24.12;86.70
20983;BME280;10650;51.528;6.748;2023-06-22T12:26:35;101246.81;;;24.14;87.85
20983;BME280;10650;51.528;6.748;2023-06-22T12:29:02;101240.09;;;24.19;88.17
20983;BME280;10650;51.528;6.748;2023-06-22T12:31:30;101232.44;;;24.26;89.13
20983;BME280;10650;51.528;6.748;2023-06-22T12:33:59;101245.03;;;24.29;88.28
20983;BME280;10650;51.528;6.748;2023-06-22T12:36:27;101235.34;;;24.39;88.44
20983;BME280;10650;51.528;6.748;2023-06-22T12:38:55;101233.84;;;24.33;87.04
20983;BME280;10650;51.528;6.748;2023-06-22T12:41:23;101212.91;;;24.64;88.24
20983;BME280;10650;51.528;6.748;2023-06-22T12:43:50;101202.53;;;24.85;87.33
20983;BME280;10650;51.528;6.748;2023-06-22T12:46:18;101198.72;;;24.88;86.43
20983;BME280;10650;51.528;6.748;2023-06-22T12:48:46;101186.94;;;24.87;87.14
20983;BME280;10650;51.528;6.748;2023-06-22T12:51:21;101177.94;;;25.00;87.11
20983;BME280;10650;51.528;6.748;2023-06-22T12:53:49;101168.38;;;25.07;86.36
20983;BME280;10650;51.528;6.748;2023-06-22T12:56:17;101173.66;;;25.10;84.87
20983;BME280;10650;51.528;6.748;2023-06-22T12:58:45;101188.50;;;25.06;83.43